sensor_id;sensor_type;location;lat;lon;timestamp;temperature;humidity
3226;DHT22;1625;49.884;8.666;2023-02-21T00:00:43;9.70;99.90
3226;DHT22;1625;49.884;8.666;2023-02-21T00:03:27;9.70;99.90
3226;DHT22;1625;49.884;8.666;2023-02-21T00:06:11;9.70;99.90
3226;DHT22;1625;49.884;8.666;2023-02-21T00:08:56;9.60;99.90
3226;DHT22;1625;49.884;8.666;2023-02-21T00:11:41;9.70;99.90
3226;DHT22;1625;49.884;8.666;2023-02-21T00:14:26;9.60;99.90
3226;DHT22;1625;49.884;8.666;2023-02-21T00:17:10;9.60;99.90
3226;DHT22;1625;49.884;8.666;2023-02-21T00:19:54;9.60;99.90
3226;DHT22;1625;49.884;8.666;2023-02-21T00:22:38;9.70;99.90
3226;DHT22;1625;49.884;8.666;2023-02-21T00:25:23;9.60;99.90
3226;DHT22;1625;49.884;8.666;2023-02-21T00:28:07;9.60;99.90
3226;DHT22;1625;49.884;8.666;2023-02-21T00:30:51;9.60;99.90
3226;DHT22;1625;49.884;8.666;2023-02-21T00:33:36;9.60;99.90
3226;DHT22;1625;49.884;8.666;2023-02-21T00:36:20;9.60;99.90
3226;DHT22;1625;49.884;8.666;2023-02-21T00:39:04;9.60;99.90
3226;DHT22;1625;49.884;8.666;2023-02-21T00:41:48;9.60;99.90
3226;DHT22;1625;49.884;8.666;2023-02-21T00:44:32;9.60;99.90
3226;DHT22;1625;49.884;8.666;2023-02-21T00:47:16;9.60;99.90
3226;DHT22;1625;49.884;8.666;2023-02-21T00:50:01;9.60;99.90
3226;DHT22;1625;49.884;8.666;2023-02-21T00:52:45;9.50;99.90
3226;DHT22;1625;49.884;8.666;2023-02-21T00:55:29;9.50;99.90
3226;DHT22;1625;49.884;8.666;2023-02-21T00:58:13;9.50;99.90
3226;DHT22;1625;49.884;8.666;2023-02-21T01:00:57;9.50;99.90
3226;DHT22;1625;49.884;8.666;2023-02-21T01:03:41;9.50;99.90
3226;DHT22;1625;49.884;8.666;2023-02-21T01:06:26;9.50;99.90
3226;DHT22;1625;49.884;8.666;2023-02-21T01:09:10;9.50;99.90
3226;DHT22;1625;49.884;8.666;2023-02-21T01:11:54;9.50;99.90
3226;DHT22;1625;49.884;8.666;2023-02-21T01:14:38;9.50;99.90
3226;DHT22;1625;49.884;8.666;2023-02-21T01:17:22;9.50;99.90
3226;DHT22;1625;49.884;8.666;2023-02-21T01:20:07;9.40;99.90
3226;DHT22;1625;49.884;8.666;2023-02-21T01:22:51;9.40;99.90
3226;DHT22;1625;49.884;8.666;2023-02-21T01:25:35;9.40;99.90
3226;DHT22;1625;49.884;8.666;2023-02-21T01:28:19;9.40;99.90
3226;DHT22;1625;49.884;8.666;2023-02-21T01:31:04;9.40;99.90
3226;DHT22;1625;49.884;8.666;2023-02-21T01:33:48;9.40;99.90
3226;DHT22;1625;49.884;8.666;2023-02-21T01:36:32;9.40;99.90
3226;DHT22;1625;49.884;8.666;2023-02-21T01:39:16;9.40;99.90
3226;DHT22;1625;49.884;8.666;2023-02-21T01:42:00;9.30;99.90
3226;DHT22;1625;49.884;8.666;2023-02-21T01:44:46;9.30;99.90
3226;DHT22;1625;49.884;8.666;2023-02-21T01:47:30;9.40;99.90
3226;DHT22;1625;49.884;8.666;2023-02-21T01:53:07;9.30;99.90
3226;DHT22;1625;49.884;8.666;2023-02-21T01:55:53;9.30;99.90
3226;DHT22;1625;49.884;8.666;2023-02-21T01:58:37;9.30;99.90
3226;DHT22;1625;49.884;8.666;2023-02-21T02:01:52;9.30;99.90
3226;DHT22;1625;49.884;8.666;2023-02-21T02:04:37;9.30;99.90
3226;DHT22;1625;49.884;8.666;2023-02-21T02:07:22;9.20;99.90
3226;DHT22;1625;49.884;8.666;2023-02-21T02:10:08;9.20;99.90
3226;DHT22;1625;49.884;8.666;2023-02-21T02:13:06;9.20;99.90
3226;DHT22;1625;49.884;8.666;2023-02-21T02:24:46;9.20;99.90
3226;DHT22;1625;49.884;8.666;2023-02-21T02:27:43;9.10;99.90
3226;DHT22;1625;49.884;8.666;2023-02-21T02:33:39;9.10;99.90
3226;DHT22;1625;49.884;8.666;2023-02-21T02:36:33;9.10;99.90
3226;DHT22;1625;49.884;8.666;2023-02-21T02:41:57;9.10;99.90
3226;DHT22;1625;49.884;8.666;2023-02-21T02:44:40;9.00;99.90
3226;DHT22;1625;49.884;8.666;2023-02-21T02:47:11;9.10;99.90
3226;DHT22;1625;49.884;8.666;2023-02-21T02:49:40;9.00;99.90
3226;DHT22;1625;49.884;8.666;2023-02-21T02:52:08;9.10;99.90
3226;DHT22;1625;49.884;8.666;2023-02-21T02:54:34;9.00;99.90
3226;DHT22;1625;49.884;8.666;2023-02-21T02:57:02;9.00;99.90
3226;DHT22;1625;49.884;8.666;2023-02-21T02:59:37;9.10;99.90
3226;DHT22;1625;49.884;8.666;2023-02-21T03:16:04;9.00;99.90
3226;DHT22;1625;49.884;8.666;2023-02-21T03:18:42;8.90;99.90
3226;DHT22;1625;49.884;8.666;2023-02-21T03:21:12;8.90;99.90
3226;DHT22;1625;49.884;8.666;2023-02-21T03:23:41;8.90;99.90
3226;DHT22;1625;49.884;8.666;2023-02-21T03:26:09;8.90;99.90
3226;DHT22;1625;49.884;8.666;2023-02-21T03:28:36;8.90;99.90
3226;DHT22;1625;49.884;8.666;2023-02-21T03:31:03;8.90;99.90
3226;DHT22;1625;49.884;8.666;2023-02-21T03:33:30;8.90;99.90
3226;DHT22;1625;49.884;8.666;2023-02-21T03:35:58;8.80;99.90
3226;DHT22;1625;49.884;8.666;2023-02-21T03:38:27;8.80;99.90
3226;DHT22;1625;49.884;8.666;2023-02-21T03:40:53;8.80;99.90
3226;DHT22;1625;49.884;8.666;2023-02-21T03:43:19;8.80;99.90
3226;DHT22;1625;49.884;8.666;2023-02-21T03:45:44;8.80;99.90
3226;DHT22;1625;49.884;8.666;2023-02-21T03:48:10;8.70;99.90
3226;DHT22;1625;49.884;8.666;2023-02-21T03:50:35;8.70;99.90
3226;DHT22;1625;49.884;8.666;2023-02-21T03:53:01;8.70;99.90
3226;DHT22;1625;49.884;8.666;2023-02-21T03:55:27;8.70;99.90
3226;DHT22;1625;49.884;8.666;2023-02-21T03:57:52;8.70;99.90
3226;DHT22;1625;49.884;8.666;2023-02-21T04:00:18;8.60;99.90
3226;DHT22;1625;49.884;8.666;2023-02-21T04:02:43;8.60;99.90
3226;DHT22;1625;49.884;8.666;2023-02-21T04:05:09;8.70;99.90
3226;DHT22;1625;49.884;8.666;2023-02-21T04:07:35;8.60;99.90
3226;DHT22;1625;49.884;8.666;2023-02-21T04:10:00;8.60;99.90
3226;DHT22;1625;49.884;8.666;2023-02-21T04:12:26;8.60;99.90
3226;DHT22;1625;49.884;8.666;2023-02-21T04:14:51;9.10;99.90
3226;DHT22;1625;49.884;8.666;2023-02-21T04:17:17;8.60;99.90
3226;DHT22;1625;49.884;8.666;2023-02-21T04:19:43;8.60;99.90
3226;DHT22;1625;49.884;8.666;2023-02-21T04:22:08;8.60;99.90
3226;DHT22;1625;49.884;8.666;2023-02-21T04:24:34;8.60;99.90
3226;DHT22;1625;49.884;8.666;2023-02-21T04:26:59;8.60;99.90
3226;DHT22;1625;49.884;8.666;2023-02-21T04:29:26;8.60;99.90
3226;DHT22;1625;49.884;8.666;2023-02-21T04:31:52;8.60;99.90
3226;DHT22;1625;49.884;8.666;2023-02-21T04:34:18;8.60;99.90
3226;DHT22;1625;49.884;8.666;2023-02-21T04:36:43;8.60;99.90
3226;DHT22;1625;49.884;8.666;2023-02-21T04:39:09;8.50;99.90
3226;DHT22;1625;49.884;8.666;2023-02-21T04:41:34;8.60;99.90
3226;DHT22;1625;49.884;8.666;2023-02-21T04:44:00;8.60;99.90
3226;DHT22;1625;49.884;8.666;2023-02-21T04:46:26;8.50;99.90
3226;DHT22;1625;49.884;8.666;2023-02-21T04:48:51;8.60;99.90
3226;DHT22;1625;49.884;8.666;2023-02-21T04:51:20;8.60;99.90
3226;DHT22;1625;49.884;8.666;2023-02-21T04:53:47;8.60;99.90
3226;DHT22;1625;49.884;8.666;2023-02-21T04:56:12;8.50;99.90
3226;DHT22;1625;49.884;8.666;2023-02-21T04:58:38;8.50;99.90
3226;DHT22;1625;49.884;8.666;2023-02-21T05:01:04;8.60;99.90
3226;DHT22;1625;49.884;8.666;2023-02-21T05:03:29;8.50;99.90
3226;DHT22;1625;49.884;8.666;2023-02-21T05:05:56;8.50;99.90
3226;DHT22;1625;49.884;8.666;2023-02-21T05:08:22;8.50;99.90
3226;DHT22;1625;49.884;8.666;2023-02-21T05:10:49;8.50;99.90
3226;DHT22;1625;49.884;8.666;2023-02-21T05:13:19;8.50;99.90
3226;DHT22;1625;49.884;8.666;2023-02-21T05:15:44;8.50;99.90
3226;DHT22;1625;49.884;8.666;2023-02-21T05:18:10;8.50;99.90
3226;DHT22;1625;49.884;8.666;2023-02-21T05:20:35;8.40;99.90
3226;DHT22;1625;49.884;8.666;2023-02-21T05:23:01;8.40;99.90
3226;DHT22;1625;49.884;8.666;2023-02-21T05:25:26;8.40;99.90
3226;DHT22;1625;49.884;8.666;2023-02-21T05:27:52;8.50;99.90
3226;DHT22;1625;49.884;8.666;2023-02-21T05:30:19;8.50;99.90
3226;DHT22;1625;49.884;8.666;2023-02-21T05:32:46;8.50;99.90
3226;DHT22;1625;49.884;8.666;2023-02-21T05:35:14;8.40;99.90
3226;DHT22;1625;49.884;8.666;2023-02-21T05:41:15;8.40;99.90
3226;DHT22;1625;49.884;8.666;2023-02-21T05:43:45;8.40;99.90
3226;DHT22;1625;49.884;8.666;2023-02-21T05:46:29;8.40;99.90
3226;DHT22;1625;49.884;8.666;2023-02-21T05:48:56;8.40;99.90
3226;DHT22;1625;49.884;8.666;2023-02-21T05:54:14;8.40;99.90
3226;DHT22;1625;49.884;8.666;2023-02-21T05:56:56;8.40;99.90
3226;DHT22;1625;49.884;8.666;2023-02-21T05:59:21;8.40;99.90
3226;DHT22;1625;49.884;8.666;2023-02-21T06:01:48;8.30;99.90
3226;DHT22;1625;49.884;8.666;2023-02-21T06:04:14;8.30;99.90
3226;DHT22;1625;49.884;8.666;2023-02-21T06:06:54;8.30;99.90
3226;DHT22;1625;49.884;8.666;2023-02-21T06:20:50;8.30;99.90
3226;DHT22;1625;49.884;8.666;2023-02-21T06:25:41;8.30;99.90
3226;DHT22;1625;49.884;8.666;2023-02-21T06:28:46;8.30;99.90
3226;DHT22;1625;49.884;8.666;2023-02-21T06:31:40;8.30;99.90
3226;DHT22;1625;49.884;8.666;2023-02-21T07:08:59;8.20;99.90
3226;DHT22;1625;49.884;8.666;2023-02-21T07:18:36;8.30;99.90
3226;DHT22;1625;49.884;8.666;2023-02-21T08:22:41;9.80;99.90
3226;DHT22;1625;49.884;8.666;2023-02-21T09:02:25;10.00;99.90
3226;DHT22;1625;49.884;8.666;2023-02-21T09:22:27;10.20;99.90
3226;DHT22;1625;49.884;8.666;2023-02-21T10:05:50;10.90;99.90
3226;DHT22;1625;49.884;8.666;2023-02-21T10:08:23;11.00;99.90
3226;DHT22;1625;49.884;8.666;2023-02-21T10:10:55;10.90;99.90
3226;DHT22;1625;49.884;8.666;2023-02-21T10:13:33;11.00;99.90
3226;DHT22;1625;49.884;8.666;2023-02-21T10:16:14;10.90;99.90
3226;DHT22;1625;49.884;8.666;2023-02-21T10:19:03;11.00;99.90
3226;DHT22;1625;49.884;8.666;2023-02-21T10:21:38;11.00;99.90
3226;DHT22;1625;49.884;8.666;2023-02-21T12:06:15;13.00;99.90
3226;DHT22;1625;49.884;8.666;2023-02-21T12:09:00;13.10;99.90
3226;DHT22;1625;49.884;8.666;2023-02-21T12:11:38;13.20;99.90
3226;DHT22;1625;49.884;8.666;2023-02-21T12:17:31;13.30;99.90
3226;DHT22;1625;49.884;8.666;2023-02-21T12:23:21;13.40;99.90
3226;DHT22;1625;49.884;8.666;2023-02-21T12:28:30;13.50;99.90
3226;DHT22;1625;49.884;8.666;2023-02-21T12:39:38;13.70;99.90
3226;DHT22;1625;49.884;8.666;2023-02-21T12:47:45;13.90;99.90
3226;DHT22;1625;49.884;8.666;2023-02-21T12:53:28;14.00;99.90
3226;DHT22;1625;49.884;8.666;2023-02-21T12:56:01;14.20;99.90
3226;DHT22;1625;49.884;8.666;2023-02-21T12:58:33;14.20;99.90
3226;DHT22;1625;49.884;8.666;2023-02-21T13:01:08;14.20;99.90
3226;DHT22;1625;49.884;8.666;2023-02-21T13:09:10;14.40;99.90
3226;DHT22;1625;49.884;8.666;2023-02-21T13:11:54;14.30;99.90
3226;DHT22;1625;49.884;8.666;2023-02-21T13:14:32;14.40;99.90
3226;DHT22;1625;49.884;8.666;2023-02-21T13:16:59;14.50;99.90
3226;DHT22;1625;49.884;8.666;2023-02-21T13:19:30;14.50;99.90
3226;DHT22;1625;49.884;8.666;2023-02-21T13:24:43;14.60;99.90
3226;DHT22;1625;49.884;8.666;2023-02-21T13:32:38;14.80;99.90
3226;DHT22;1625;49.884;8.666;2023-02-21T13:35:07;14.90;99.90
3226;DHT22;1625;49.884;8.666;2023-02-21T13:37:35;14.90;99.90
3226;DHT22;1625;49.884;8.666;2023-02-21T13:40:19;14.90;99.90
3226;DHT22;1625;49.884;8.666;2023-02-21T13:43:01;15.00;99.90
3226;DHT22;1625;49.884;8.666;2023-02-21T13:45:27;15.00;99.90
3226;DHT22;1625;49.884;8.666;2023-02-21T13:55:37;15.30;99.90
3226;DHT22;1625;49.884;8.666;2023-02-21T14:08:21;15.30;99.90
3226;DHT22;1625;49.884;8.666;2023-02-21T14:13:36;15.30;99.90
3226;DHT22;1625;49.884;8.666;2023-02-21T14:16:21;15.40;99.90
3226;DHT22;1625;49.884;8.666;2023-02-21T14:18:58;15.30;99.90
3226;DHT22;1625;49.884;8.666;2023-02-21T14:26:55;15.30;99.90
3226;DHT22;1625;49.884;8.666;2023-02-21T14:29:41;15.30;99.90
3226;DHT22;1625;49.884;8.666;2023-02-21T14:37:32;15.40;99.90
3226;DHT22;1625;49.884;8.666;2023-02-21T14:42:51;15.40;99.90
3226;DHT22;1625;49.884;8.666;2023-02-21T14:45:34;15.40;99.90
3226;DHT22;1625;49.884;8.666;2023-02-21T15:02:57;15.60;99.90
3226;DHT22;1625;49.884;8.666;2023-02-21T15:05:36;15.80;99.90
3226;DHT22;1625;49.884;8.666;2023-02-21T15:10:45;15.70;99.90
3226;DHT22;1625;49.884;8.666;2023-02-21T15:13:34;15.80;99.90
3226;DHT22;1625;49.884;8.666;2023-02-21T15:16:08;15.80;99.90
3226;DHT22;1625;49.884;8.666;2023-02-21T15:18:40;15.80;99.90
3226;DHT22;1625;49.884;8.666;2023-02-21T15:23:34;15.90;99.90
3226;DHT22;1625;49.884;8.666;2023-02-21T15:26:22;15.90;99.90
3226;DHT22;1625;49.884;8.666;2023-02-21T15:29:10;15.90;99.90
3226;DHT22;1625;49.884;8.666;2023-02-21T15:31:52;15.80;99.90
3226;DHT22;1625;49.884;8.666;2023-02-21T15:34:22;15.70;99.90
3226;DHT22;1625;49.884;8.666;2023-02-21T15:39:34;15.70;99.90
3226;DHT22;1625;49.884;8.666;2023-02-21T15:42:02;15.50;99.90
3226;DHT22;1625;49.884;8.666;2023-02-21T15:44:31;15.50;99.90
3226;DHT22;1625;49.884;8.666;2023-02-21T15:47:08;15.50;99.90
3226;DHT22;1625;49.884;8.666;2023-02-21T15:49:42;15.60;99.90
3226;DHT22;1625;49.884;8.666;2023-02-21T15:52:35;15.90;99.90
3226;DHT22;1625;49.884;8.666;2023-02-21T16:03:25;17.50;99.90
3226;DHT22;1625;49.884;8.666;2023-02-21T16:05:51;17.90;99.90
3226;DHT22;1625;49.884;8.666;2023-02-21T16:08:17;18.20;99.90
3226;DHT22;1625;49.884;8.666;2023-02-21T16:10:44;17.90;99.90
3226;DHT22;1625;49.884;8.666;2023-02-21T16:13:10;17.70;99.90
3226;DHT22;1625;49.884;8.666;2023-02-21T16:15:37;17.60;99.90
3226;DHT22;1625;49.884;8.666;2023-02-21T16:18:07;17.70;99.90
3226;DHT22;1625;49.884;8.666;2023-02-21T16:20:38;17.40;99.90
3226;DHT22;1625;49.884;8.666;2023-02-21T16:23:30;17.10;99.90
3226;DHT22;1625;49.884;8.666;2023-02-21T16:28:35;16.40;99.90
3226;DHT22;1625;49.884;8.666;2023-02-21T16:31:03;16.00;99.90
3226;DHT22;1625;49.884;8.666;2023-02-21T16:33:29;15.70;99.90
3226;DHT22;1625;49.884;8.666;2023-02-21T16:35:56;15.40;99.90
3226;DHT22;1625;49.884;8.666;2023-02-21T16:38:24;15.20;99.90
3226;DHT22;1625;49.884;8.666;2023-02-21T16:40:50;15.10;99.90
3226;DHT22;1625;49.884;8.666;2023-02-21T16:43:25;15.00;99.90
3226;DHT22;1625;49.884;8.666;2023-02-21T16:45:53;14.80;99.90
3226;DHT22;1625;49.884;8.666;2023-02-21T16:48:25;14.70;99.90
3226;DHT22;1625;49.884;8.666;2023-02-21T16:50:53;14.50;99.90
3226;DHT22;1625;49.884;8.666;2023-02-21T16:53:20;14.40;99.90
3226;DHT22;1625;49.884;8.666;2023-02-21T16:55:47;14.30;99.90
3226;DHT22;1625;49.884;8.666;2023-02-21T16:58:32;14.30;99.90
3226;DHT22;1625;49.884;8.666;2023-02-21T17:01:05;14.10;99.90
3226;DHT22;1625;49.884;8.666;2023-02-21T17:03:31;14.10;99.90
3226;DHT22;1625;49.884;8.666;2023-02-21T17:05:58;14.00;99.90
3226;DHT22;1625;49.884;8.666;2023-02-21T17:08:24;13.90;99.90
3226;DHT22;1625;49.884;8.666;2023-02-21T17:10:51;13.80;99.90
3226;DHT22;1625;49.884;8.666;2023-02-21T17:13:16;13.80;99.90
3226;DHT22;1625;49.884;8.666;2023-02-21T17:15:42;13.70;99.90
3226;DHT22;1625;49.884;8.666;2023-02-21T17:18:08;13.60;99.90
3226;DHT22;1625;49.884;8.666;2023-02-21T17:20:33;13.60;99.90
3226;DHT22;1625;49.884;8.666;2023-02-21T17:22:59;13.50;99.90
3226;DHT22;1625;49.884;8.666;2023-02-21T17:25:26;13.40;99.90
3226;DHT22;1625;49.884;8.666;2023-02-21T17:27:52;13.30;99.90
3226;DHT22;1625;49.884;8.666;2023-02-21T17:30:20;13.30;99.90
3226;DHT22;1625;49.884;8.666;2023-02-21T17:32:46;13.20;99.90
3226;DHT22;1625;49.884;8.666;2023-02-21T17:35:15;13.10;99.90
3226;DHT22;1625;49.884;8.666;2023-02-21T17:37:42;13.00;99.90
3226;DHT22;1625;49.884;8.666;2023-02-21T17:40:09;13.00;99.90
3226;DHT22;1625;49.884;8.666;2023-02-21T17:42:35;12.90;99.90
3226;DHT22;1625;49.884;8.666;2023-02-21T17:45:00;12.90;99.90
3226;DHT22;1625;49.884;8.666;2023-02-21T17:47:28;12.80;99.90
3226;DHT22;1625;49.884;8.666;2023-02-21T17:49:53;12.70;99.90
3226;DHT22;1625;49.884;8.666;2023-02-21T17:52:20;12.70;99.90
3226;DHT22;1625;49.884;8.666;2023-02-21T17:54:45;12.60;99.90
3226;DHT22;1625;49.884;8.666;2023-02-21T17:57:11;12.50;99.90
3226;DHT22;1625;49.884;8.666;2023-02-21T17:59:38;12.40;99.90
3226;DHT22;1625;49.884;8.666;2023-02-21T18:02:05;12.40;99.90
3226;DHT22;1625;49.884;8.666;2023-02-21T18:04:30;12.30;99.90
3226;DHT22;1625;49.884;8.666;2023-02-21T18:06:56;12.20;99.90
3226;DHT22;1625;49.884;8.666;2023-02-21T18:09:22;12.20;99.90
3226;DHT22;1625;49.884;8.666;2023-02-21T18:11:49;12.00;99.90
3226;DHT22;1625;49.884;8.666;2023-02-21T18:14:15;11.90;99.90
3226;DHT22;1625;49.884;8.666;2023-02-21T18:16:42;11.80;99.90
3226;DHT22;1625;49.884;8.666;2023-02-21T18:19:08;11.80;99.90
3226;DHT22;1625;49.884;8.666;2023-02-21T18:21:34;11.80;99.90
3226;DHT22;1625;49.884;8.666;2023-02-21T18:24:01;11.80;99.90
3226;DHT22;1625;49.884;8.666;2023-02-21T18:26:27;11.80;99.90
3226;DHT22;1625;49.884;8.666;2023-02-21T18:28:52;11.80;99.90
3226;DHT22;1625;49.884;8.666;2023-02-21T18:31:18;11.80;99.90
3226;DHT22;1625;49.884;8.666;2023-02-21T18:33:44;11.80;99.90
3226;DHT22;1625;49.884;8.666;2023-02-21T18:36:10;11.80;99.90
3226;DHT22;1625;49.884;8.666;2023-02-21T18:38:38;11.80;99.90
3226;DHT22;1625;49.884;8.666;2023-02-21T18:41:09;11.70;99.90
3226;DHT22;1625;49.884;8.666;2023-02-21T18:43:35;11.70;99.90
3226;DHT22;1625;49.884;8.666;2023-02-21T18:46:01;11.70;99.90
3226;DHT22;1625;49.884;8.666;2023-02-21T18:48:29;11.60;99.90
3226;DHT22;1625;49.884;8.666;2023-02-21T18:50:55;11.50;99.90
3226;DHT22;1625;49.884;8.666;2023-02-21T18:53:21;11.50;99.90
3226;DHT22;1625;49.884;8.666;2023-02-21T18:55:46;11.40;99.90
3226;DHT22;1625;49.884;8.666;2023-02-21T18:58:32;11.30;99.90
3226;DHT22;1625;49.884;8.666;2023-02-21T19:00:57;11.30;99.90
3226;DHT22;1625;49.884;8.666;2023-02-21T19:03:23;11.30;99.90
3226;DHT22;1625;49.884;8.666;2023-02-21T19:05:49;11.30;99.90
3226;DHT22;1625;49.884;8.666;2023-02-21T19:08:17;11.30;99.90
3226;DHT22;1625;49.884;8.666;2023-02-21T19:10:44;11.30;99.90
3226;DHT22;1625;49.884;8.666;2023-02-21T19:13:10;11.20;99.90
3226;DHT22;1625;49.884;8.666;2023-02-21T19:15:36;11.10;99.90
3226;DHT22;1625;49.884;8.666;2023-02-21T19:18:01;11.00;99.90
3226;DHT22;1625;49.884;8.666;2023-02-21T19:20:27;10.90;99.90
3226;DHT22;1625;49.884;8.666;2023-02-21T19:22:52;10.90;99.90
3226;DHT22;1625;49.884;8.666;2023-02-21T19:25:21;10.90;99.90
3226;DHT22;1625;49.884;8.666;2023-02-21T19:27:51;10.90;99.90
3226;DHT22;1625;49.884;8.666;2023-02-21T19:30:17;10.80;99.90
3226;DHT22;1625;49.884;8.666;2023-02-21T19:32:44;10.80;99.90
3226;DHT22;1625;49.884;8.666;2023-02-21T19:35:09;10.80;99.90
3226;DHT22;1625;49.884;8.666;2023-02-21T19:37:41;10.80;99.90
3226;DHT22;1625;49.884;8.666;2023-02-21T19:40:07;10.80;99.90
3226;DHT22;1625;49.884;8.666;2023-02-21T19:42:34;10.80;99.90
3226;DHT22;1625;49.884;8.666;2023-02-21T19:44:59;10.70;99.90
3226;DHT22;1625;49.884;8.666;2023-02-21T19:47:25;10.70;99.90
3226;DHT22;1625;49.884;8.666;2023-02-21T19:49:54;10.70;99.90
3226;DHT22;1625;49.884;8.666;2023-02-21T19:52:19;10.60;99.90
3226;DHT22;1625;49.884;8.666;2023-02-21T19:54:48;10.60;99.90
3226;DHT22;1625;49.884;8.666;2023-02-21T19:57:14;10.50;99.90
3226;DHT22;1625;49.884;8.666;2023-02-21T19:59:45;10.40;99.90
3226;DHT22;1625;49.884;8.666;2023-02-21T20:02:13;10.30;99.90
3226;DHT22;1625;49.884;8.666;2023-02-21T20:04:41;10.30;99.90
3226;DHT22;1625;49.884;8.666;2023-02-21T20:07:10;10.30;99.90
3226;DHT22;1625;49.884;8.666;2023-02-21T20:09:36;10.20;99.90
3226;DHT22;1625;49.884;8.666;2023-02-21T20:12:02;10.20;99.90
3226;DHT22;1625;49.884;8.666;2023-02-21T20:14:28;10.10;99.90
3226;DHT22;1625;49.884;8.666;2023-02-21T20:16:54;10.10;99.90
3226;DHT22;1625;49.884;8.666;2023-02-21T20:19:21;10.10;99.90
3226;DHT22;1625;49.884;8.666;2023-02-21T20:21:50;10.00;99.90
3226;DHT22;1625;49.884;8.666;2023-02-21T20:24:19;9.90;99.90
3226;DHT22;1625;49.884;8.666;2023-02-21T20:26:52;9.90;99.90
3226;DHT22;1625;49.884;8.666;2023-02-21T20:29:19;9.90;99.90
3226;DHT22;1625;49.884;8.666;2023-02-21T20:31:44;9.90;99.90
3226;DHT22;1625;49.884;8.666;2023-02-21T20:34:10;9.80;99.90
3226;DHT22;1625;49.884;8.666;2023-02-21T20:36:38;9.80;99.90
3226;DHT22;1625;49.884;8.666;2023-02-21T20:39:26;9.60;99.90
3226;DHT22;1625;49.884;8.666;2023-02-21T20:41:56;9.70;99.90
3226;DHT22;1625;49.884;8.666;2023-02-21T20:44:22;9.60;99.90
3226;DHT22;1625;49.884;8.666;2023-02-21T20:46:47;9.60;99.90
3226;DHT22;1625;49.884;8.666;2023-02-21T20:49:13;9.60;99.90
3226;DHT22;1625;49.884;8.666;2023-02-21T20:51:40;9.60;99.90
3226;DHT22;1625;49.884;8.666;2023-02-21T20:54:07;9.50;99.90
3226;DHT22;1625;49.884;8.666;2023-02-21T20:56:38;9.60;99.90
3226;DHT22;1625;49.884;8.666;2023-02-21T20:59:05;9.60;99.90
3226;DHT22;1625;49.884;8.666;2023-02-21T21:01:35;9.60;99.90
3226;DHT22;1625;49.884;8.666;2023-02-21T21:04:04;9.70;99.90
3226;DHT22;1625;49.884;8.666;2023-02-21T21:06:32;9.60;99.90
3226;DHT22;1625;49.884;8.666;2023-02-21T21:08:57;9.60;99.90
3226;DHT22;1625;49.884;8.666;2023-02-21T21:11:23;9.70;99.90
3226;DHT22;1625;49.884;8.666;2023-02-21T21:13:50;9.50;99.90
3226;DHT22;1625;49.884;8.666;2023-02-21T21:16:16;9.60;99.90
3226;DHT22;1625;49.884;8.666;2023-02-21T21:18:42;9.60;99.90
3226;DHT22;1625;49.884;8.666;2023-02-21T21:21:08;9.60;99.90
3226;DHT22;1625;49.884;8.666;2023-02-21T21:23:34;9.60;99.90
3226;DHT22;1625;49.884;8.666;2023-02-21T21:26:00;9.60;99.90
3226;DHT22;1625;49.884;8.666;2023-02-21T21:28:27;9.60;99.90
3226;DHT22;1625;49.884;8.666;2023-02-21T21:30:56;9.70;99.90
3226;DHT22;1625;49.884;8.666;2023-02-21T21:33:24;9.70;99.90
